Time;durP1;ratioP1;P1;durP2;ratioP2;P2;SDS_P1;SDS_P2;PMS_P1;PMS_P2;Temp;Humidity;BMP_temperature;BMP_pressure;BME280_temperature;BME280_humidity;BME280_pressure;Samples;Min_cycle;Max_cycle;Signal;HPM_P1;HPM_P2
2021/01/10 00:00:47;;;;;;;5.50;4.03;;;;;;;-7.58;81.85;93328.05;1768882;81;21191;-75
2021/01/10 00:03:16;;;;;;;5.47;3.50;;;;;;;-7.72;81.66;93332.45;1769300;81;21176;-77
2021/01/10 00:05:44;;;;;;;4.23;3.53;;;;;;;-7.89;81.87;93329.52;1769009;81;21432;-77
2021/01/10 00:08:11;;;;;;;6.93;4.93;;;;;;;-7.98;82.12;93332.51;1770087;81;21422;-74
2021/01/10 00:10:39;;;;;;;5.83;3.70;;;;;;;-8.02;82.30;93334.14;1768382;80;21180;-74
2021/01/10 00:13:06;;;;;;;5.20;3.57;;;;;;;-8.08;82.42;93338.17;1768210;79;21180;-76
2021/01/10 00:15:33;;;;;;;4.87;3.60;;;;;;;-8.13;82.51;93342.70;1768659;81;21175;-74
2021/01/10 00:18:05;;;;;;;6.60;3.27;;;;;;;-8.18;82.73;93332.22;1768658;80;21399;-75
2021/01/10 00:20:33;;;;;;;42.10;21.03;;;;;;;-8.16;82.96;93336.66;1768545;81;21198;-77
2021/01/10 00:23:02;;;;;;;10.60;5.63;;;;;;;-8.12;82.73;93343.76;1769172;79;21825;-77
2021/01/10 00:25:30;;;;;;;11.63;6.50;;;;;;;-8.10;82.80;93345.56;1770017;81;21112;-79
2021/01/10 00:27:58;;;;;;;15.93;8.67;;;;;;;-8.13;82.81;93344.02;1769580;79;21484;-75
2021/01/10 00:30:26;;;;;;;5.17;3.60;;;;;;;-8.15;83.08;93350.91;1769092;81;21427;-76
2021/01/10 00:32:55;;;;;;;7.83;4.97;;;;;;;-8.18;83.34;93350.14;1769805;81;21490;-79
2021/01/10 00:35:24;;;;;;;7.27;4.70;;;;;;;-8.14;83.40;93350.38;1770134;81;21478;-78
2021/01/10 00:37:54;;;;;;;6.90;4.83;;;;;;;-8.11;83.37;93352.45;1770232;81;21199;-75
2021/01/10 00:40:22;;;;;;;5.70;4.30;;;;;;;-8.12;83.39;93346.39;1769979;81;21175;-77
2021/01/10 00:42:50;;;;;;;5.50;3.33;;;;;;;-8.08;83.54;93345.30;1770487;81;21184;-77
2021/01/10 00:45:18;;;;;;;71.63;26.57;;;;;;;-8.02;83.48;93346.80;1769503;79;21189;-74
2021/01/10 00:47:47;;;;;;;29.33;15.73;;;;;;;-7.95;83.25;93348.56;1769973;80;21211;-77
2021/01/10 00:50:19;;;;;;;20.77;11.77;;;;;;;-7.91;82.92;93352.75;1734975;82;21154;-77
2021/01/10 00:52:46;;;;;;;8.67;5.97;;;;;;;-7.94;82.71;93346.17;1775361;79;21202;-75
2021/01/10 00:55:13;;;;;;;5.63;3.93;;;;;;;-7.98;82.56;93347.80;1779090;79;21591;-78
2021/01/10 00:57:41;;;;;;;4.93;3.97;;;;;;;-8.04;82.67;93344.99;1778026;79;21371;-75
2021/01/10 01:00:16;;;;;;;10.30;6.30;;;;;;;-8.01;82.93;93351.03;1778428;80;21226;-79
2021/01/10 01:02:49;;;;;;;23.55;11.68;;;;;;;-7.92;82.98;93351.19;1758734;81;21149;-76
2021/01/10 01:05:19;;;;;;;25.75;12.43;;;;;;;-7.86;82.81;93344.77;1789689;80;21765;-74
2021/01/10 01:07:47;;;;;;;14.13;7.80;;;;;;;-7.83;82.37;93351.59;1772618;79;21620;-77
2021/01/10 01:10:14;;;;;;;11.70;6.30;;;;;;;-7.89;82.31;93346.13;1829866;76;21558;-77
2021/01/10 01:12:42;;;;;;;5.87;4.07;;;;;;;-7.92;82.37;93352.51;1862317;76;21622;-75
2021/01/10 01:15:11;;;;;;;4.67;3.50;;;;;;;-7.91;82.38;93349.58;1850623;76;21468;-75
2021/01/10 01:17:39;;;;;;;3.97;3.10;;;;;;;-7.94;82.07;93347.49;1867104;76;21178;-75
2021/01/10 01:20:08;;;;;;;10.33;5.20;;;;;;;-7.97;82.18;93353.36;1852148;76;21107;-71
2021/01/10 01:22:36;;;;;;;6.00;3.83;;;;;;;-7.97;82.06;93348.08;1861273;76;22252;-73
2021/01/10 01:25:06;;;;;;;4.53;2.93;;;;;;;-8.10;81.71;93350.84;1859616;76;21187;-76
2021/01/10 01:27:34;;;;;;;5.47;3.40;;;;;;;-8.25;81.97;93351.01;1852160;76;21155;-75
2021/01/10 01:30:04;;;;;;;3.70;3.20;;;;;;;-8.26;82.45;93360.53;1867027;76;21163;-74
2021/01/10 01:32:36;;;;;;;3.93;3.17;;;;;;;-8.21;82.68;93363.11;1867308;75;21170;-74
2021/01/10 01:35:06;;;;;;;7.03;4.30;;;;;;;-8.15;82.71;93364.10;1853466;76;21654;-75
2021/01/10 01:37:34;;;;;;;5.43;3.60;;;;;;;-8.15;82.34;93365.95;1858797;76;21186;-74
2021/01/10 01:40:05;;;;;;;3.93;2.83;;;;;;;-8.20;82.32;93362.81;1868178;75;21146;-79
2021/01/10 01:42:33;;;;;;;27.97;13.70;;;;;;;-8.18;82.47;93365.97;1865149;76;21329;-73
2021/01/10 01:45:05;;;;;;;8.37;6.03;;;;;;;-8.15;82.48;93367.28;1849967;77;21190;-76
2021/01/10 01:47:33;;;;;;;20.13;9.03;;;;;;;-8.11;82.50;93364.33;1865775;76;21798;-75
2021/01/10 01:50:06;;;;;;;30.87;17.30;;;;;;;-8.09;82.42;93359.55;1854688;76;21179;-75
2021/01/10 01:52:34;;;;;;;29.30;14.43;;;;;;;-8.09;82.48;93362.96;1859373;76;21163;-76
2021/01/10 01:55:04;;;;;;;25.50;13.07;;;;;;;-8.06;82.54;93362.41;1867354;75;21174;-77
2021/01/10 01:57:32;;;;;;;35.47;17.40;;;;;;;-8.02;82.45;93368.45;1866101;76;21146;-77
2021/01/10 02:00:00;;;;;;;42.40;21.00;;;;;;;-8.00;82.41;93357.88;1848660;77;21360;-76
2021/01/10 02:02:28;;;;;;;53.23;24.30;;;;;;;-7.98;82.31;93360.22;1864819;76;21206;-73
2021/01/10 02:05:09;;;;;;;65.80;29.57;;;;;;;-8.01;82.28;93373.47;1822923;77;21673;-78
2021/01/10 02:07:54;;;;;;;80.97;37.83;;;;;;;-7.99;82.32;93370.53;1826171;76;21177;-76
2021/01/10 02:10:26;;;;;;;74.03;37.60;;;;;;;-7.96;82.22;93381.86;1859518;76;21610;-77
2021/01/10 02:12:59;;;;;;;73.60;33.93;;;;;;;-7.97;82.12;93379.75;1852892;76;22362;-75
2021/01/10 02:15:29;;;;;;;68.07;32.57;;;;;;;-7.92;82.30;93384.97;1867681;76;21118;-75
2021/01/10 02:17:57;;;;;;;66.87;30.43;;;;;;;-7.89;82.17;93379.13;1867303;76;21161;-75
2021/01/10 02:20:31;;;;;;;71.30;33.17;;;;;;;-7.89;82.11;93380.45;1852427;76;21717;-77
2021/01/10 02:23:22;;;;;;;70.20;32.38;;;;;;;-7.90;81.84;93382.84;1860938;76;21166;-74
2021/01/10 02:25:50;;;;;;;63.93;31.90;;;;;;;-7.91;81.77;93387.84;1867702;75;21193;-74
2021/01/10 02:28:22;;;;;;;65.40;30.70;;;;;;;-7.90;81.55;93392.59;1867851;75;21456;-77
2021/01/10 02:30:51;;;;;;;79.27;36.90;;;;;;;-7.92;81.49;93390.24;1830828;76;21367;-76
2021/01/10 02:33:26;;;;;;;58.00;29.97;;;;;;;-7.93;81.48;93392.64;1850008;77;21216;-76
2021/01/10 02:35:54;;;;;;;64.00;30.90;;;;;;;-7.90;81.55;93395.23;1867628;76;21311;-76
2021/01/10 02:38:59;;;;;;;61.23;27.23;;;;;;;-7.89;81.30;93396.83;1749301;79;21151;-79
2021/01/10 02:41:43;;;;;;;48.60;23.70;;;;;;;-7.95;81.19;93392.12;1833204;77;21207;-75
2021/01/10 02:44:33;;;;;;;56.93;25.77;;;;;;;-8.02;81.07;93401.44;1861023;76;21445;-74
2021/01/10 02:47:09;;;;;;;55.73;28.27;;;;;;;-8.09;81.24;93399.91;1840311;77;27152;-75
2021/01/10 02:49:37;;;;;;;62.73;30.40;;;;;;;-8.14;81.51;93398.65;1801263;79;21059;-80
2021/01/10 02:52:04;;;;;;;70.57;34.43;;;;;;;-8.12;81.53;93401.81;1776191;79;21750;-77
2021/01/10 02:54:32;;;;;;;70.83;34.47;;;;;;;-8.10;81.51;93400.20;1790103;76;21675;-80
2021/01/10 02:57:15;;;;;;;65.80;32.83;;;;;;;-8.04;81.49;93402.27;1846012;77;21184;-78
2021/01/10 02:59:43;;;;;;;67.03;32.70;;;;;;;-8.04;81.29;93398.31;1783789;80;21193;-78
2021/01/10 03:02:13;;;;;;;58.13;30.07;;;;;;;-8.09;81.18;93397.80;1840664;77;21128;-77
2021/01/10 03:04:41;;;;;;;98.27;46.87;;;;;;;-8.13;81.22;93400.75;1847321;77;22977;-79
2021/01/10 03:07:08;;;;;;;64.93;31.03;;;;;;;-8.20;81.14;93407.67;1872322;75;21537;-75
2021/01/10 03:09:37;;;;;;;44.77;24.50;;;;;;;-8.22;81.08;93404.53;1873955;75;21153;-78
2021/01/10 03:12:25;;;;;;;24.27;13.00;;;;;;;-8.28;81.00;93403.00;1822873;74;21430;-77
2021/01/10 03:14:59;;;;;;;52.20;26.00;;;;;;;-8.39;81.25;93399.70;1887138;75;21086;-76
2021/01/10 03:17:49;;;;;;;66.00;32.40;;;;;;;-8.45;81.58;93408.73;1847790;77;21279;-76
2021/01/10 03:20:19;;;;;;;67.57;32.90;;;;;;;-8.47;81.61;93406.89;1892360;74;21138;-77
2021/01/10 03:22:49;;;;;;;85.20;40.63;;;;;;;-8.48;81.76;93409.81;1862166;74;22241;-78
2021/01/10 03:25:19;;;;;;;73.57;34.37;;;;;;;-8.44;81.77;93407.66;1893575;74;21127;-76
2021/01/10 03:27:46;;;;;;;79.73;39.70;;;;;;;-8.40;81.64;93399.98;1912572;74;21171;-77
2021/01/10 03:30:16;;;;;;;81.37;38.10;;;;;;;-8.36;81.40;93407.03;1888059;75;21309;-75
2021/01/10 03:32:44;;;;;;;47.20;24.30;;;;;;;-8.35;81.29;93408.63;1881370;76;21136;-75
2021/01/10 03:35:15;;;;;;;43.63;21.17;;;;;;;-8.34;81.23;93405.45;1864562;75;21162;-76
2021/01/10 03:37:42;;;;;;;76.17;34.50;;;;;;;-8.34;81.34;93406.23;1853010;76;21183;-74
2021/01/10 03:40:10;;;;;;;79.03;36.07;;;;;;;-8.35;81.20;93405.98;1887785;74;21138;-75
2021/01/10 03:42:38;;;;;;;70.67;33.53;;;;;;;-8.39;81.17;93408.92;1906129;74;21210;-74
2021/01/10 03:45:07;;;;;;;72.37;33.93;;;;;;;-8.39;81.31;93404.97;1853331;74;21182;-74
2021/01/10 03:47:35;;;;;;;68.87;31.53;;;;;;;-8.36;81.35;93406.25;1927258;74;21135;-76
2021/01/10 03:50:07;;;;;;;58.93;29.60;;;;;;;-8.31;81.14;93405.68;1895351;74;21146;-74
2021/01/10 03:52:35;;;;;;;53.17;27.90;;;;;;;-8.33;80.67;93405.70;1864541;75;21175;-78
2021/01/10 03:55:08;;;;;;;34.73;19.17;;;;;;;-8.35;80.52;93403.86;1880860;74;21360;-75
2021/01/10 03:57:39;;;;;;;27.03;14.13;;;;;;;-8.33;80.68;93409.66;1910830;74;21167;-74
2021/01/10 04:00:09;;;;;;;37.73;18.33;;;;;;;-8.36;80.70;93404.39;1848736;74;21634;-75
2021/01/10 04:02:38;;;;;;;34.27;17.77;;;;;;;-8.38;80.82;93405.78;1926847;74;21197;-77
2021/01/10 04:05:09;;;;;;;31.37;14.50;;;;;;;-8.40;80.99;93406.05;1893898;74;21135;-76
2021/01/10 04:07:36;;;;;;;34.17;17.27;;;;;;;-8.39;81.17;93409.47;1884434;75;21792;-79
2021/01/10 04:10:05;;;;;;;34.63;17.27;;;;;;;-8.34;81.04;93410.73;1873042;76;21187;-74
2021/01/10 04:12:33;;;;;;;42.43;20.77;;;;;;;-8.35;80.89;93413.09;1872668;73;21255;-74
2021/01/10 04:15:01;;;;;;;50.57;23.63;;;;;;;-8.37;80.83;93403.39;1926945;74;21197;-74
2021/01/10 04:17:29;;;;;;;43.40;21.40;;;;;;;-8.39;80.67;93404.19;1890673;74;21100;-78
2021/01/10 04:19:58;;;;;;;45.47;20.93;;;;;;;-8.38;80.71;93403.93;1882922;75;21358;-75
2021/01/10 04:22:26;;;;;;;27.50;14.57;;;;;;;-8.36;80.73;93407.03;1863550;76;21175;-74
2021/01/10 04:24:53;;;;;;;53.00;24.30;;;;;;;-8.38;80.74;93404.47;1869896;74;21142;-77
2021/01/10 04:27:20;;;;;;;56.17;27.73;;;;;;;-8.42;80.71;93405.55;1924649;74;21175;-75
2021/01/10 04:29:50;;;;;;;60.77;29.70;;;;;;;-8.47;80.54;93408.75;1888165;75;21232;-75
2021/01/10 04:32:18;;;;;;;69.67;31.80;;;;;;;-8.60;80.67;93406.23;1854838;75;21345;-76
2021/01/10 04:34:47;;;;;;;57.87;29.30;;;;;;;-8.70;80.83;93409.72;1847933;77;21175;-76
2021/01/10 04:37:15;;;;;;;57.07;28.33;;;;;;;-8.78;80.97;93407.67;1877718;74;21635;-74
2021/01/10 04:39:43;;;;;;;71.97;35.30;;;;;;;-8.85;81.12;93412.47;1913047;74;22242;-75
2021/01/10 04:42:10;;;;;;;59.50;30.63;;;;;;;-8.92;81.29;93411.45;1847969;77;21152;-73
2021/01/10 04:44:40;;;;;;;69.00;33.40;;;;;;;-8.92;81.46;93410.67;1849357;77;21338;-74
2021/01/10 04:47:07;;;;;;;57.40;28.90;;;;;;;-8.88;81.59;93416.44;1848686;77;21167;-76
2021/01/10 04:49:36;;;;;;;61.93;32.00;;;;;;;-8.82;81.61;93411.39;1840896;74;21166;-81
2021/01/10 04:52:04;;;;;;;67.43;31.70;;;;;;;-8.77;81.56;93413.73;1916322;74;21537;-77
2021/01/10 04:54:33;;;;;;;54.13;25.03;;;;;;;-8.81;81.46;93412.95;1841940;75;21205;-75
2021/01/10 04:57:03;;;;;;;48.13;22.50;;;;;;;-8.88;81.32;93405.11;1880330;76;21177;-78
2021/01/10 04:59:30;;;;;;;49.17;24.97;;;;;;;-8.93;81.44;93411.74;1864435;76;21437;-76
2021/01/10 05:02:01;;;;;;;55.97;28.27;;;;;;;-8.97;81.53;93414.67;1873439;74;21358;-76
2021/01/10 05:04:31;;;;;;;52.80;26.00;;;;;;;-9.00;81.62;93422.58;1909564;74;21139;-80
2021/01/10 05:06:59;;;;;;;61.50;28.00;;;;;;;-9.01;81.64;93417.06;1865923;74;21182;-76
2021/01/10 05:09:27;;;;;;;64.63;29.50;;;;;;;-9.04;81.69;93428.15;1925062;74;21160;-75
2021/01/10 05:11:55;;;;;;;69.67;31.97;;;;;;;-9.06;81.57;93426.33;1850513;77;21221;-74
2021/01/10 05:14:23;;;;;;;66.53;30.90;;;;;;;-9.09;81.57;93421.59;1847831;77;21160;-75
2021/01/10 05:16:50;;;;;;;65.27;29.67;;;;;;;-9.15;81.46;93424.00;1889086;74;22207;-77
2021/01/10 05:19:21;;;;;;;60.77;27.93;;;;;;;-9.20;81.51;93422.72;1913766;74;21194;-77
2021/01/10 05:21:49;;;;;;;59.23;26.07;;;;;;;-9.19;81.79;93425.60;1886488;75;21270;-75
2021/01/10 05:24:18;;;;;;;54.30;26.90;;;;;;;-9.17;81.68;93422.97;1879496;76;21653;-75
2021/01/10 05:26:45;;;;;;;50.50;24.83;;;;;;;-9.16;81.67;93426.38;1864017;76;21174;-77
2021/01/10 05:29:13;;;;;;;62.20;29.10;;;;;;;-9.19;81.58;93435.61;1904719;74;21613;-77
2021/01/10 05:31:45;;;;;;;62.53;30.27;;;;;;;-9.22;81.44;93440.63;1909558;74;21179;-74
2021/01/10 05:34:17;;;;;;;47.03;21.83;;;;;;;-9.28;81.44;93445.69;1879651;75;21272;-74
2021/01/10 05:36:44;;;;;;;50.63;25.57;;;;;;;-9.29;81.57;93442.23;1850645;74;21174;-75
2021/01/10 05:39:25;;;;;;;42.23;20.70;;;;;;;-9.28;81.59;93450.95;1925371;74;21008;-77
2021/01/10 05:42:04;;;;;;;47.87;23.40;;;;;;;-9.28;81.68;93453.58;1891670;74;21423;-76
2021/01/10 05:44:45;;;;;;;59.27;29.30;;;;;;;-9.26;81.70;93452.23;1881026;75;21198;-75
2021/01/10 05:47:14;;;;;;;49.10;25.10;;;;;;;-9.25;81.69;93453.83;1855839;76;21346;-78
2021/01/10 05:49:52;;;;;;;49.20;23.80;;;;;;;-9.25;81.58;93455.15;1879877;74;21087;-77
2021/01/10 05:52:21;;;;;;;46.90;23.70;;;;;;;-9.25;81.54;93460.42;1918024;74;20957;-78
2021/01/10 05:54:52;;;;;;;53.97;26.77;;;;;;;-9.24;81.58;93461.20;1887873;75;21123;-78
2021/01/10 05:57:30;;;;;;;54.40;25.67;;;;;;;-9.22;81.43;93455.11;1879522;76;21119;-80
2021/01/10 05:59:57;;;;;;;45.60;23.03;;;;;;;-9.22;81.36;93458.53;1863917;75;21177;-79
2021/01/10 06:02:35;;;;;;;42.83;23.23;;;;;;;-9.19;81.31;93454.05;1904846;74;21174;-77
2021/01/10 06:05:18;;;;;;;50.10;27.73;;;;;;;-9.16;81.26;93455.36;1906610;74;21159;-76
2021/01/10 06:07:47;;;;;;;43.77;22.27;;;;;;;-9.18;81.18;93458.25;1873436;75;21574;-76
2021/01/10 06:10:28;;;;;;;40.73;21.07;;;;;;;-9.17;81.11;93451.16;1860477;74;21271;-75
2021/01/10 06:13:06;;;;;;;53.77;27.77;;;;;;;-9.15;81.07;93455.61;1925636;74;21495;-75
2021/01/10 06:15:35;;;;;;;40.37;22.07;;;;;;;-9.19;80.78;93463.27;1887563;75;21179;-76
2021/01/10 06:18:05;;;;;;;43.70;22.17;;;;;;;-9.22;80.71;93469.60;1881031;75;21088;-75
2021/01/10 06:20:33;;;;;;;57.97;29.83;;;;;;;-9.20;80.72;93469.60;1868563;76;21087;-77
2021/01/10 06:23:04;;;;;;;63.20;34.10;;;;;;;-9.19;80.71;93479.06;1890104;73;22314;-76
2021/01/10 06:25:37;;;;;;;61.77;27.70;;;;;;;-9.21;80.24;93471.17;1907320;74;21704;-77
2021/01/10 06:28:11;;;;;;;75.03;35.23;;;;;;;-9.22;80.14;93474.34;1850025;74;21416;-77
2021/01/10 06:30:59;;;;;;;84.40;39.93;;;;;;;-9.21;80.12;93478.56;1924874;74;21131;-73
2021/01/10 06:33:30;;;;;;;74.27;35.03;;;;;;;-9.30;79.81;93473.59;1876089;76;21167;-76
2021/01/10 06:36:07;;;;;;;29.70;16.63;;;;;;;-9.42;80.07;93487.61;1898247;74;21144;-75
2021/01/10 06:38:36;;;;;;;35.07;18.43;;;;;;;-9.44;80.56;93479.17;1876978;75;22738;-75
2021/01/10 06:41:32;;;;;;;42.70;20.33;;;;;;;-9.42;80.72;93488.92;1877783;74;21509;-76
2021/01/10 06:44:02;;;;;;;50.43;25.07;;;;;;;-9.45;80.83;93491.55;1887255;75;21707;-75
2021/01/10 06:46:30;;;;;;;65.37;31.83;;;;;;;-9.43;80.94;93487.35;1867726;75;21136;-76
2021/01/10 06:49:03;;;;;;;78.90;38.10;;;;;;;-9.42;80.90;93484.97;1903047;75;21104;-78
2021/01/10 06:51:30;;;;;;;76.53;37.57;;;;;;;-9.42;80.89;93485.76;1859700;75;21323;-76
2021/01/10 06:54:06;;;;;;;69.80;36.53;;;;;;;-9.37;80.91;93490.20;1892392;75;21020;-78
2021/01/10 06:56:33;;;;;;;82.20;42.73;;;;;;;-9.28;80.91;93478.07;1877599;75;21206;-76
2021/01/10 06:59:09;;;;;;;86.90;43.30;;;;;;;-9.22;80.79;93485.41;1849977;75;21127;-77
2021/01/10 07:01:51;;;;;;;121.03;54.17;;;;;;;-9.13;80.41;93493.80;1889282;75;21159;-77
2021/01/10 07:04:22;;;;;;;85.70;38.10;;;;;;;-9.00;80.22;93496.89;1833955;75;21526;-77
2021/01/10 07:06:53;;;;;;;80.77;39.40;;;;;;;-8.86;80.17;93497.88;1902370;75;21156;-75
2021/01/10 07:09:21;;;;;;;47.20;22.77;;;;;;;-8.76;79.88;93503.60;1864740;75;21152;-77
2021/01/10 07:11:50;;;;;;;77.90;37.17;;;;;;;-8.65;80.11;93505.93;1863313;76;21907;-77
2021/01/10 07:14:27;;;;;;;89.80;42.33;;;;;;;-8.50;79.74;93509.50;1856901;76;21654;-77
2021/01/10 07:17:11;;;;;;;66.30;32.80;;;;;;;-8.37;79.42;93520.20;1858139;75;22003;-78
2021/01/10 07:19:43;;;;;;;69.30;32.13;;;;;;;-8.25;78.96;93516.42;1890778;75;26066;-77
2021/01/10 07:22:17;;;;;;;80.40;39.30;;;;;;;-8.13;78.87;93517.63;1830311;77;21143;-77
2021/01/10 07:24:45;;;;;;;86.05;44.88;;;;;;;-7.92;78.37;93518.27;1835875;77;21658;-77
2021/01/10 07:27:16;;;;;;;92.57;48.33;;;;;;;-7.79;77.49;93510.75;1886680;74;21155;-77
2021/01/10 07:29:43;;;;;;;85.13;46.17;;;;;;;-7.72;77.25;93515.95;1870162;75;21193;-77
2021/01/10 07:32:20;;;;;;;89.17;51.07;;;;;;;-7.64;76.88;93503.46;1861948;76;21095;-77
2021/01/10 07:34:54;;;;;;;82.77;45.73;;;;;;;-7.49;77.05;93512.30;1863164;76;21755;-80
2021/01/10 07:37:23;;;;;;;84.70;43.23;;;;;;;-7.06;77.08;93510.50;1846277;77;21139;-76
2021/01/10 07:39:57;;;;;;;70.43;38.57;;;;;;;-6.60;76.01;93517.30;1803691;78;21156;-77
2021/01/10 07:42:28;;;;;;;75.52;38.98;;;;;;;-6.17;74.91;93507.16;1860946;75;21407;-78
2021/01/10 07:45:23;;;;;;;76.87;41.53;;;;;;;-5.73;74.31;93501.38;1871985;75;21207;-79
2021/01/10 07:47:52;;;;;;;76.43;39.20;;;;;;;-5.48;72.45;93505.99;1821323;76;21191;-77
2021/01/10 07:50:24;;;;;;;43.90;24.57;;;;;;;-5.37;71.43;93508.70;1859034;76;21160;-77
2021/01/10 07:52:56;;;;;;;34.87;20.77;;;;;;;-5.24;71.23;93507.13;1839522;74;21290;-79
2021/01/10 07:55:29;;;;;;;38.17;21.87;;;;;;;-5.03;71.79;93516.28;1888634;75;21673;-77
2021/01/10 07:58:08;;;;;;;50.28;28.25;;;;;;;-4.71;69.94;93518.55;1821177;78;21178;-79
2021/01/10 08:00:38;;;;;;;46.77;26.23;;;;;;;-4.49;68.67;93522.59;1870809;75;21163;-75
2021/01/10 08:03:09;;;;;;;40.33;23.90;;;;;;;-4.33;67.96;93521.71;1868687;75;21824;-78
2021/01/10 08:05:41;;;;;;;44.13;25.60;;;;;;;-4.21;67.05;93522.54;1875624;75;21194;-79
2021/01/10 08:08:35;;;;;;;43.67;26.07;;;;;;;-4.14;66.49;93520.23;1896666;75;21203;-78
2021/01/10 08:11:02;;;;;;;44.73;25.53;;;;;;;-4.09;66.05;93525.98;1785909;78;21164;-76
2021/01/10 08:13:36;;;;;;;58.00;33.07;;;;;;;-4.03;65.49;93526.88;1797912;79;21394;-76
2021/01/10 08:16:09;;;;;;;53.77;29.43;;;;;;;-4.14;65.18;93518.90;1812455;77;21136;-75
2021/01/10 08:18:46;;;;;;;49.33;29.10;;;;;;;-4.20;65.30;93520.90;1823969;77;21182;-76
2021/01/10 08:21:15;;;;;;;71.03;40.27;;;;;;;-4.23;65.36;93520.16;1830760;77;21159;-75
2021/01/10 08:23:53;;;;;;;60.20;35.43;;;;;;;-4.27;64.91;93513.89;1810404;77;21235;-76
2021/01/10 08:26:20;;;;;;;61.17;35.30;;;;;;;-4.23;64.46;93516.18;1785558;77;21163;-79
2021/01/10 08:29:02;;;;;;;59.63;31.23;;;;;;;-4.09;64.67;93518.02;1841780;77;21143;-76
2021/01/10 08:31:29;;;;;;;65.83;33.90;;;;;;;-3.92;64.69;93516.80;1767358;81;21684;-75
2021/01/10 08:34:09;;;;;;;69.33;35.93;;;;;;;-3.77;64.33;93519.09;1839242;77;21425;-76
2021/01/10 08:36:37;;;;;;;73.37;40.10;;;;;;;-3.56;64.15;93514.63;1784089;77;21175;-76
2021/01/10 08:39:09;;;;;;;56.37;30.20;;;;;;;-3.37;63.98;93509.09;1809047;77;21601;-79
2021/01/10 08:41:42;;;;;;;68.40;39.50;;;;;;;-2.96;63.97;93511.45;1816558;77;21387;-77
2021/01/10 08:44:18;;;;;;;49.43;27.87;;;;;;;-2.54;63.79;93503.89;1777742;77;21306;-77
2021/01/10 08:46:49;;;;;;;34.85;20.50;;;;;;;-1.94;63.00;93510.37;1845575;77;22631;-79
2021/01/10 08:49:23;;;;;;;50.60;30.37;;;;;;;-1.32;60.31;93497.95;1769621;80;21183;-79
2021/01/10 08:51:51;;;;;;;38.83;22.25;;;;;;;-0.85;59.07;93498.73;1761247;79;21208;-77
2021/01/10 08:54:21;;;;;;;29.72;19.32;;;;;;;-0.45;59.38;93492.22;1818803;77;21180;-76
2021/01/10 08:56:55;;;;;;;22.00;13.40;;;;;;;0.10;57.63;93497.89;1820073;78;21361;-77
2021/01/10 08:59:36;;;;;;;17.50;10.55;;;;;;;0.66;56.59;93502.34;1755922;80;21192;-76
2021/01/10 09:02:08;;;;;;;22.70;14.93;;;;;;;1.09;54.94;93490.38;1763918;79;21202;-77
2021/01/10 09:04:42;;;;;;;15.95;9.70;;;;;;;1.36;53.34;93486.28;1793613;79;21768;-77
2021/01/10 09:07:29;;;;;;;18.00;10.83;;;;;;;1.49;52.18;93485.14;1842707;77;21407;-76
2021/01/10 09:10:00;;;;;;;15.10;10.30;;;;;;;1.29;51.52;93485.49;1794578;75;21172;-77
2021/01/10 09:12:39;;;;;;;24.87;16.32;;;;;;;0.81;52.16;93482.98;1857481;76;21181;-77
2021/01/10 09:15:14;;;;;;;29.00;17.62;;;;;;;0.42;53.27;93477.64;1832174;76;21204;-77
2021/01/10 09:17:45;;;;;;;29.02;17.52;;;;;;;0.23;53.57;93480.25;1875977;75;21151;-77
2021/01/10 09:20:24;;;;;;;24.00;16.25;;;;;;;0.21;55.13;93477.67;1852326;75;21119;-75
2021/01/10 09:22:51;;;;;;;26.80;16.25;;;;;;;0.15;55.48;93473.09;1818138;78;21191;-77
2021/01/10 09:25:19;;;;;;;28.05;17.37;;;;;;;0.09;55.63;93461.58;1813452;78;22537;-77
2021/01/10 09:28:03;;;;;;;26.07;16.35;;;;;;;-0.06;55.91;93464.30;1783331;79;21504;-75
2021/01/10 09:30:30;;;;;;;30.12;18.20;;;;;;;-0.19;56.38;93461.31;1762565;81;21193;-77
2021/01/10 09:32:58;;;;;;;22.50;13.48;;;;;;;-0.38;56.43;93459.09;1780338;79;21188;-76
2021/01/10 09:35:26;;;;;;;19.70;12.58;;;;;;;-0.56;56.64;93457.89;1809516;79;21151;-75
2021/01/10 09:37:53;;;;;;;23.75;14.07;;;;;;;-0.69;57.25;93452.22;1802798;78;22258;-73
2021/01/10 09:40:30;;;;;;;28.55;16.10;;;;;;;-0.78;57.92;93452.84;1804507;79;21477;-77
2021/01/10 09:43:00;;;;;;;24.00;13.98;;;;;;;-0.79;58.38;93449.91;1784299;79;21151;-78
2021/01/10 09:45:36;;;;;;;22.85;12.37;;;;;;;-0.82;57.56;93447.91;1784846;80;21195;-76
2021/01/10 09:48:04;;;;;;;22.45;12.73;;;;;;;-0.97;57.26;93449.80;1844440;76;21144;-74
2021/01/10 09:50:32;;;;;;;20.00;12.15;;;;;;;-1.11;58.11;93452.68;1836092;76;21736;-75
2021/01/10 09:53:00;;;;;;;18.20;11.63;;;;;;;-1.18;57.72;93449.17;1811659;78;21153;-75
2021/01/10 09:55:28;;;;;;;20.82;12.63;;;;;;;-1.23;58.21;93446.13;1810664;77;21174;-76
2021/01/10 09:57:55;;;;;;;26.15;14.47;;;;;;;-1.27;58.02;93450.55;1806361;78;21170;-75
2021/01/10 10:00:23;;;;;;;22.77;13.03;;;;;;;-1.26;58.41;93445.44;1844701;76;21417;-77
2021/01/10 10:02:51;;;;;;;16.23;10.23;;;;;;;-1.20;58.85;93439.38;1821211;76;21213;-77
2021/01/10 10:05:25;;;;;;;20.95;13.13;;;;;;;-1.10;58.85;93444.90;1793559;78;21196;-78
2021/01/10 10:07:51;;;;;;;19.25;11.30;;;;;;;-1.03;57.64;93447.30;1795715;77;21190;-77
2021/01/10 10:10:32;;;;;;;23.57;13.10;;;;;;;-0.99;58.16;93450.11;1849379;75;21425;-77
2021/01/10 10:13:10;;;;;;;17.57;11.00;;;;;;;-0.92;57.65;93449.05;1763599;80;21180;-76
2021/01/10 10:15:45;;;;;;;15.88;10.10;;;;;;;-0.79;58.16;93449.39;1763512;80;21188;-79
2021/01/10 10:18:18;;;;;;;16.90;9.25;;;;;;;-0.65;57.82;93447.80;1818628;78;21159;-82
2021/01/10 10:20:46;;;;;;;14.65;9.23;;;;;;;-0.60;57.26;93443.63;1806099;76;21165;-76
2021/01/10 10:23:14;;;;;;;15.35;8.53;;;;;;;-0.58;56.94;93444.06;1833247;77;21218;-79
2021/01/10 10:25:47;;;;;;;12.28;7.97;;;;;;;-0.59;56.94;93445.73;1750637;79;21162;-80
2021/01/10 10:28:15;;;;;;;18.73;10.58;;;;;;;-0.58;57.11;93440.05;1800365;79;21419;-79
2021/01/10 10:30:44;;;;;;;18.40;11.15;;;;;;;-0.50;57.54;93438.44;1875807;74;21104;-78
2021/01/10 10:33:14;;;;;;;17.48;10.68;;;;;;;-0.40;58.15;93435.39;1828507;76;21068;-80
2021/01/10 10:35:42;;;;;;;14.60;9.70;;;;;;;-0.26;57.27;93428.45;1830179;76;21748;-80
2021/01/10 10:38:12;;;;;;;17.25;9.18;;;;;;;-0.19;57.33;93430.02;1855818;75;21216;-81
2021/01/10 10:40:41;;;;;;;13.93;8.40;;;;;;;-0.15;57.46;93429.63;1814742;78;22100;-80
2021/01/10 10:43:08;;;;;;;10.85;6.78;;;;;;;-0.06;57.27;93417.52;1740325;82;21194;-80
2021/01/10 10:45:37;;;;;;;11.70;7.30;;;;;;;0.07;56.32;93421.78;1786306;80;21164;-80
2021/01/10 10:48:06;;;;;;;11.22;7.42;;;;;;;0.09;55.67;93414.23;1787244;80;21183;-77
2021/01/10 10:50:36;;;;;;;10.15;6.20;;;;;;;0.07;55.58;93423.12;1788105;79;21171;-78
2021/01/10 10:53:05;;;;;;;11.68;7.22;;;;;;;-0.03;55.38;93418.20;1798661;79;21622;-80
2021/01/10 10:55:34;;;;;;;9.88;6.37;;;;;;;-0.10;55.50;93425.96;1768665;81;21202;-76
2021/01/10 10:58:03;;;;;;;10.63;6.08;;;;;;;-0.17;55.24;93423.03;1809769;79;21637;-80
2021/01/10 11:00:33;;;;;;;9.88;5.87;;;;;;;-0.28;55.05;93421.30;1828723;77;21644;-78
2021/01/10 11:03:01;;;;;;;10.23;6.30;;;;;;;-0.31;54.98;93420.62;1832056;77;21525;-79
2021/01/10 11:05:29;;;;;;;9.75;6.12;;;;;;;-0.34;55.32;93415.39;1818693;77;21197;-78
2021/01/10 11:07:56;;;;;;;10.65;6.97;;;;;;;-0.36;55.86;93412.25;1801317;77;21698;-80
2021/01/10 11:10:24;;;;;;;12.33;7.37;;;;;;;-0.43;55.79;93410.66;1844545;77;21422;-76
2021/01/10 11:12:52;;;;;;;9.08;5.40;;;;;;;-0.46;55.37;93409.96;1867661;76;21641;-78
2021/01/10 11:15:20;;;;;;;8.70;5.87;;;;;;;-0.46;55.55;93411.30;1826179;76;21220;-76
2021/01/10 11:17:48;;;;;;;11.25;6.62;;;;;;;-0.46;55.43;93401.95;1801077;78;22313;-79
2021/01/10 11:20:16;;;;;;;11.88;7.62;;;;;;;-0.43;55.57;93398.63;1821796;77;21688;-76
2021/01/10 11:22:45;;;;;;;9.40;6.40;;;;;;;-0.38;55.37;93403.77;1878267;76;21159;-76
2021/01/10 11:25:13;;;;;;;12.18;6.87;;;;;;;-0.28;55.33;93397.25;1846318;77;21456;-76
2021/01/10 11:27:41;;;;;;;10.30;7.28;;;;;;;-0.18;54.55;93390.19;1833933;77;21187;-77
2021/01/10 11:30:13;;;;;;;10.25;6.67;;;;;;;-0.05;54.48;93402.47;1842580;76;21373;-78
2021/01/10 11:32:40;;;;;;;10.50;7.42;;;;;;;0.09;54.45;93401.42;1858736;76;21159;-78
2021/01/10 11:35:09;;;;;;;11.70;6.62;;;;;;;0.17;54.99;93393.30;1825290;76;21169;-77
2021/01/10 11:37:36;;;;;;;8.00;5.03;;;;;;;0.26;55.12;93395.10;1878101;76;21116;-80
2021/01/10 11:40:06;;;;;;;9.05;5.67;;;;;;;0.29;54.29;93389.09;1853658;74;21194;-82